createdAt,value
2022-08-21T00:02:17.185Z,99661.06
2022-08-21T00:04:48.263Z,99668.19
2022-08-21T00:07:24.159Z,99670.91
2022-08-21T00:09:52.576Z,99666.47
2022-08-21T00:12:19.713Z,99669.25
2022-08-21T00:14:46.635Z,99669.28
2022-08-21T00:17:13.509Z,99662.16
2022-08-21T00:19:40.809Z,99647.34
2022-08-21T00:22:07.356Z,99648.41
2022-08-21T00:24:33.868Z,99649.28
2022-08-21T00:27:00.489Z,99651.25
2022-08-21T00:29:26.995Z,99650.59
2022-08-21T00:31:54.364Z,99642.66
2022-08-21T00:34:21.046Z,99641.00
2022-08-21T00:36:47.796Z,99645.63
2022-08-21T00:39:14.328Z,99640.41
2022-08-21T00:41:41.604Z,99638.56
2022-08-21T00:44:11.512Z,99639.63
2022-08-21T00:46:39.243Z,99645.84
2022-08-21T00:49:08.441Z,99639.63
2022-08-21T00:51:47.823Z,99644.13
2022-08-21T00:54:19.105Z,99639.56
2022-08-21T00:56:49.165Z,99639.09
2022-08-21T00:59:18.803Z,99637.44
2022-08-21T01:01:45.935Z,99640.22
2022-08-21T01:04:13.208Z,99634.00
2022-08-21T01:06:39.817Z,99639.59
2022-08-21T01:09:06.339Z,99633.50
2022-08-21T01:11:33.010Z,99646.00
2022-08-21T01:13:59.800Z,99643.31
2022-08-21T01:16:26.662Z,99644.22
2022-08-21T01:18:53.357Z,99643.44
2022-08-21T01:21:23.419Z,99639.00
2022-08-21T01:23:57.133Z,99627.44
2022-08-21T01:26:33.619Z,99623.13
2022-08-21T01:29:03.663Z,99616.13
2022-08-21T01:31:32.524Z,99597.75
2022-08-21T01:33:59.098Z,99591.72
2022-08-21T01:36:27.047Z,99583.84
2022-08-21T01:38:53.726Z,99581.53
2022-08-21T01:41:20.329Z,99579.00
2022-08-21T01:43:46.890Z,99570.25
2022-08-21T01:46:14.124Z,99562.41
2022-08-21T01:48:42.539Z,99554.56
2022-08-21T01:51:09.882Z,99555.53
2022-08-21T01:53:37.723Z,99559.25
2022-08-21T01:56:12.578Z,99558.41
2022-08-21T01:58:41.521Z,99567.22
2022-08-21T02:01:08.813Z,99569.94
2022-08-21T02:03:36.394Z,99575.34
2022-08-21T02:06:05.148Z,99572.75
2022-08-21T02:08:32.255Z,99576.28
2022-08-21T02:11:01.705Z,99579.81
2022-08-21T02:13:28.237Z,99578.00
2022-08-21T02:15:55.015Z,99581.66
2022-08-21T02:18:21.550Z,99573.81
2022-08-21T02:20:56.145Z,99564.88
2022-08-21T02:23:27.352Z,99562.16
2022-08-21T02:26:05.697Z,99561.34
2022-08-21T02:28:32.635Z,99554.25
2022-08-21T02:30:59.798Z,99554.25
2022-08-21T02:33:27.970Z,99547.31
2022-08-21T02:35:55.795Z,99537.69
2022-08-21T02:38:25.714Z,99547.47
2022-08-21T02:40:53.824Z,99545.75
2022-08-21T02:43:22.541Z,99544.19
2022-08-21T02:45:50.065Z,99549.47
2022-08-21T02:48:20.332Z,99548.56
2022-08-21T02:50:52.630Z,99544.19
2022-08-21T02:53:21.321Z,99545.19
2022-08-21T02:55:49.662Z,99549.69
2022-08-21T02:58:19.346Z,99542.56
2022-08-21T03:00:46.114Z,99545.34
2022-08-21T03:03:14.317Z,99547.13
2022-08-21T03:05:41.773Z,99541.91
2022-08-21T03:08:11.284Z,99546.44
2022-08-21T03:10:44.126Z,99555.28
2022-08-21T03:13:11.424Z,99545.56
2022-08-21T03:15:38.083Z,99555.22
2022-08-21T03:18:06.073Z,99554.31
2022-08-21T03:20:33.623Z,99561.44
2022-08-21T03:23:01.672Z,99554.38
2022-08-21T03:25:40.101Z,99553.50
2022-08-21T03:28:13.393Z,99554.44
2022-08-21T03:30:45.731Z,99545.63
2022-08-21T03:33:15.253Z,99553.44
2022-08-21T03:35:48.511Z,99554.38
2022-08-21T03:38:15.559Z,99559.88
2022-08-21T03:40:43.521Z,99566.97
2022-08-21T03:43:12.406Z,99560.91
2022-08-21T03:45:39.721Z,99559.06
2022-08-21T03:48:08.573Z,99560.81
2022-08-21T03:50:41.219Z,99575.88
2022-08-21T03:53:16.937Z,99576.94
2022-08-21T03:55:47.756Z,99573.34
2022-08-21T03:58:17.664Z,99572.50
2022-08-21T04:00:47.159Z,99578.78
2022-08-21T04:03:13.846Z,99576.06
2022-08-21T04:05:41.284Z,99576.94
2022-08-21T04:08:08.419Z,99582.19
2022-08-21T04:10:37.822Z,99583.97
2022-08-21T04:13:07.723Z,99578.59
2022-08-21T04:15:35.378Z,99573.22
2022-08-21T04:18:02.170Z,99585.75
2022-08-21T04:20:29.038Z,99585.84
2022-08-21T04:22:57.035Z,99592.84
2022-08-21T04:25:26.359Z,99591.91
2022-08-21T04:27:53.356Z,99580.41
2022-08-21T04:30:20.674Z,99580.47
2022-08-21T04:32:49.724Z,99578.66
2022-08-21T04:35:18.376Z,99579.59
2022-08-21T04:37:45.109Z,99584.84
2022-08-21T04:40:14.356Z,99591.84
2022-08-21T04:42:52.722Z,99585.69
2022-08-21T04:45:26.586Z,99590.13
2022-08-21T04:47:55.413Z,99588.44
2022-08-21T04:50:30.174Z,99601.66
2022-08-21T04:52:57.191Z,99597.22
2022-08-21T04:55:25.401Z,99603.44
2022-08-21T04:57:54.505Z,99596.19
2022-08-21T05:00:22.928Z,99599.72
2022-08-21T05:02:50.083Z,99600.53
2022-08-21T05:05:17.138Z,99594.34
2022-08-21T05:07:45.619Z,99597.13
2022-08-21T05:10:14.849Z,99608.69
2022-08-21T05:12:43.552Z,99617.47
2022-08-21T05:15:15.337Z,99620.09
2022-08-21T05:17:42.590Z,99621.81
2022-08-21T05:20:14.530Z,99607.13
2022-08-21T05:22:41.214Z,99614.47
2022-08-21T05:25:10.620Z,99621.63
2022-08-21T05:27:39.560Z,99612.78
2022-08-21T05:30:08.773Z,99614.59
2022-08-21T05:32:36.303Z,99611.03
2022-08-21T05:35:05.657Z,99616.38
2022-08-21T05:37:32.293Z,99617.34
2022-08-21T05:40:20.256Z,99625.28
2022-08-21T05:42:54.226Z,99646.63
2022-08-21T05:45:41.834Z,99644.84
2022-08-21T05:48:16.418Z,99634.97
2022-08-21T05:50:44.060Z,99642.91
2022-08-21T05:53:11.307Z,99625.28
2022-08-21T05:55:44.836Z,99635.91
2022-08-21T05:58:14.744Z,99643.06
2022-08-21T06:00:42.633Z,99645.72
2022-08-21T06:03:14.938Z,99644.88
2022-08-21T06:05:41.446Z,99643.06
2022-08-21T06:08:07.991Z,99653.81
2022-08-21T06:10:34.816Z,99652.13
2022-08-21T06:13:01.638Z,99658.44
2022-08-21T06:15:28.205Z,99663.00
2022-08-21T06:17:55.302Z,99661.44
2022-08-21T06:20:22.441Z,99665.88
2022-08-21T06:22:48.968Z,99669.47
2022-08-21T06:25:15.622Z,99679.31
2022-08-21T06:27:42.236Z,99681.13
2022-08-21T06:30:09.430Z,99682.84
2022-08-21T06:32:36.686Z,99697.13
2022-08-21T06:35:05.084Z,99703.31
2022-08-21T06:37:32.353Z,99708.69
2022-08-21T06:39:58.879Z,99710.44
2022-08-21T06:42:28.196Z,99708.69
2022-08-21T06:44:55.272Z,99705.34
2022-08-21T06:47:21.816Z,99715.44
2022-08-21T06:49:48.319Z,99718.50
2022-08-21T06:52:16.089Z,99730.34
2022-08-21T06:54:42.668Z,99727.13
2022-08-21T06:57:09.690Z,99726.47
2022-08-21T06:59:36.186Z,99723.25
2022-08-21T07:02:02.988Z,99733.13
2022-08-21T07:04:29.595Z,99726.13
2022-08-21T07:06:56.189Z,99733.22
2022-08-21T07:09:24.833Z,99738.56
2022-08-21T07:11:54.704Z,99732.38
2022-08-21T07:14:21.515Z,99735.19
2022-08-21T07:16:49.253Z,99746.25
2022-08-21T07:19:16.053Z,99743.16
2022-08-21T07:21:42.736Z,99734.72
2022-08-21T07:24:09.981Z,99737.72
2022-08-21T07:26:37.208Z,99734.44
2022-08-21T07:29:04.294Z,99729.34
2022-08-21T07:31:30.937Z,99737.38
2022-08-21T07:33:57.985Z,99742.72
2022-08-21T07:36:24.895Z,99740.03
2022-08-21T07:38:52.696Z,99746.16
2022-08-21T07:41:25.614Z,99732.81
2022-08-21T07:43:52.764Z,99732.81
2022-08-21T07:46:20.569Z,99736.47
2022-08-21T07:48:47.472Z,99728.59
2022-08-21T07:51:16.156Z,99730.44
2022-08-21T07:53:42.794Z,99739.25
2022-08-21T07:56:09.807Z,99749.88
2022-08-21T07:58:36.457Z,99751.59
2022-08-21T08:01:03.316Z,99765.81
2022-08-21T08:03:30.022Z,99767.63
2022-08-21T08:05:58.926Z,99771.09
2022-08-21T08:08:25.976Z,99767.69
2022-08-21T08:10:54.458Z,99770.41
2022-08-21T08:13:20.975Z,99755.34
2022-08-21T08:15:47.574Z,99754.41
2022-08-21T08:18:14.831Z,99760.50
2022-08-21T08:20:42.155Z,99758.69
2022-08-21T08:23:12.359Z,99762.13
2022-08-21T08:25:39.043Z,99762.94
2022-08-21T08:28:16.358Z,99757.59
2022-08-21T08:30:43.542Z,99765.50
2022-08-21T08:33:10.642Z,99761.91
2022-08-21T08:35:39.150Z,99762.63
2022-08-21T08:38:06.639Z,99754.59
2022-08-21T08:41:10.957Z,99744.94
2022-08-21T08:43:37.592Z,99747.53
2022-08-21T08:46:13.292Z,99755.41
2022-08-21T08:48:54.721Z,99744.78
2022-08-21T08:52:00.575Z,99742.91
2022-08-21T08:54:32.698Z,99743.66
2022-08-21T08:57:03.683Z,99747.91
2022-08-21T08:59:46.048Z,99746.78
2022-08-21T09:02:14.778Z,99756.81
2022-08-21T09:04:42.563Z,99755.09
2022-08-21T09:07:30.575Z,99759.44
2022-08-21T09:10:14.076Z,99764.59
2022-08-21T09:12:40.573Z,99760.13
2022-08-21T09:15:30.446Z,99758.34
2022-08-21T09:18:30.460Z,99765.00
2022-08-21T09:21:05.648Z,99758.66
2022-08-21T09:24:01.388Z,99766.53
2022-08-21T09:26:37.165Z,99758.66
2022-08-21T09:29:04.560Z,99761.25
2022-08-21T09:31:35.049Z,99763.19
2022-08-21T09:34:04.854Z,99762.97
2022-08-21T09:36:42.267Z,99778.00
2022-08-21T09:39:11.156Z,99782.59
2022-08-21T09:41:39.351Z,99781.97
2022-08-21T09:44:08.032Z,99780.69
2022-08-21T09:46:34.959Z,99783.56
2022-08-21T09:49:04.391Z,99786.13
2022-08-21T09:51:36.473Z,99780.09
2022-08-21T09:54:08.891Z,99779.41
2022-08-21T09:57:11.053Z,99776.63
2022-08-21T09:59:38.888Z,99783.81
2022-08-21T10:02:20.404Z,99784.47
2022-08-21T10:05:01.663Z,99768.59
2022-08-21T10:07:31.703Z,99772.22
2022-08-21T10:10:07.787Z,99778.38
2022-08-21T10:12:53.875Z,99788.09
2022-08-21T10:15:41.041Z,99773.13
2022-08-21T10:18:21.394Z,99781.94
2022-08-21T10:21:02.057Z,99781.69
2022-08-21T10:23:59.274Z,99778.84
2022-08-21T10:27:03.105Z,99786.88
2022-08-21T10:29:58.396Z,99786.72
2022-08-21T10:32:53.702Z,99790.34
2022-08-21T10:35:31.472Z,99783.28
2022-08-21T10:38:50.356Z,99786.66
2022-08-21T10:41:42.887Z,99792.63
2022-08-21T10:44:25.085Z,99790.59
2022-08-21T10:47:02.805Z,99798.31
2022-08-21T10:49:41.531Z,99786.53
2022-08-21T10:52:23.035Z,99784.50
2022-08-21T10:55:15.087Z,99781.44
2022-08-21T10:57:58.417Z,99786.97
2022-08-21T11:00:52.320Z,99775.91
2022-08-21T11:03:50.247Z,99778.63
2022-08-21T11:06:22.349Z,99785.53
2022-08-21T11:09:02.706Z,99788.00
2022-08-21T11:11:45.025Z,99783.16
2022-08-21T11:14:22.766Z,99779.94
2022-08-21T11:17:08.245Z,99790.63
2022-08-21T11:19:52.520Z,99791.53
2022-08-21T11:22:29.652Z,99779.25
2022-08-21T11:25:04.136Z,99782.84
2022-08-21T11:27:55.710Z,99793.97
2022-08-21T11:30:25.022Z,99793.38
2022-08-21T11:33:16.462Z,99798.78
2022-08-21T11:35:56.183Z,99799.97
2022-08-21T11:38:36.547Z,99799.13
2022-08-21T11:41:23.245Z,99791.28
2022-08-21T11:44:11.491Z,99804.47
2022-08-21T11:46:55.784Z,99799.94
2022-08-21T11:49:42.312Z,99801.78
2022-08-21T11:52:14.468Z,99804.53
2022-08-21T11:54:45.886Z,99799.06
2022-08-21T11:57:21.264Z,99796.50
2022-08-21T12:00:06.055Z,99795.66
2022-08-21T12:02:36.336Z,99795.06
2022-08-21T12:05:08.740Z,99792.34
2022-08-21T12:07:41.783Z,99801.81
2022-08-21T12:10:17.558Z,99791.16
2022-08-21T12:12:45.747Z,99809.38
2022-08-21T12:15:21.459Z,99799.34
2022-08-21T12:17:59.398Z,99795.72
2022-08-21T12:20:50.085Z,99805.53
2022-08-21T12:23:30.317Z,99807.31
2022-08-21T12:26:04.872Z,99801.28
2022-08-21T12:28:32.022Z,99798.41
2022-08-21T12:30:59.095Z,99803.50
2022-08-21T12:33:34.921Z,99805.06
2022-08-21T12:36:07.571Z,99796.91
2022-08-21T12:38:55.130Z,99796.72
2022-08-21T12:41:27.652Z,99795.16
2022-08-21T12:44:09.150Z,99791.28
2022-08-21T12:46:40.661Z,99803.56
2022-08-21T12:49:26.874Z,99802.44
2022-08-21T12:52:07.336Z,99797.03
2022-08-21T12:54:41.770Z,99789.81
2022-08-21T12:57:09.853Z,99792.97
2022-08-21T12:59:40.882Z,99785.69
2022-08-21T13:02:19.706Z,99797.72
2022-08-21T13:04:48.339Z,99791.34
2022-08-21T13:07:22.593Z,99787.53
2022-08-21T13:09:53.588Z,99791.69
2022-08-21T13:12:22.511Z,99784.19
2022-08-21T13:14:51.914Z,99786.03
2022-08-21T13:17:23.589Z,99791.41
2022-08-21T13:20:02.177Z,99795.38
2022-08-21T13:22:33.133Z,99794.34
2022-08-21T13:25:01.570Z,99795.88
2022-08-21T13:27:33.505Z,99794.41
2022-08-21T13:30:18.411Z,99791.69
2022-08-21T13:32:51.203Z,99793.19
2022-08-21T13:35:26.681Z,99793.88
2022-08-21T13:37:55.645Z,99794.50
2022-08-21T13:40:53.816Z,99800.59
2022-08-21T13:43:28.012Z,99800.47
2022-08-21T13:45:57.920Z,99794.03
2022-08-21T13:48:29.084Z,99797.66
2022-08-21T13:50:56.192Z,99800.25
2022-08-21T13:53:32.420Z,99801.34
2022-08-21T13:56:01.183Z,99795.16
2022-08-21T13:58:34.579Z,99794.09
2022-08-21T14:01:04.893Z,99797.38
2022-08-21T14:03:48.462Z,99797.31
2022-08-21T14:06:22.199Z,99799.97
2022-08-21T14:09:00.483Z,99797.53
2022-08-21T14:11:30.135Z,99805.47
2022-08-21T14:14:04.956Z,99812.25
2022-08-21T14:17:24.470Z,99796.38
2022-08-21T14:19:53.472Z,99802.66
2022-08-21T14:22:45.974Z,99804.50
2022-08-21T14:25:27.408Z,99806.16
2022-08-21T14:28:00.038Z,99810.41
2022-08-21T14:30:34.407Z,99811.28
2022-08-21T14:33:02.925Z,99813.31
2022-08-21T14:35:29.519Z,99811.53
2022-08-21T14:37:57.507Z,99814.97
2022-08-21T14:40:26.103Z,99816.66
2022-08-21T14:42:52.997Z,99808.94
2022-08-21T14:45:30.372Z,99814.06
2022-08-21T14:47:58.234Z,99813.06
2022-08-21T14:50:28.276Z,99807.78
2022-08-21T14:52:55.423Z,99805.22
2022-08-21T14:55:22.117Z,99813.13
2022-08-21T14:57:52.095Z,99802.66
2022-08-21T15:00:35.476Z,99801.00
2022-08-21T15:03:03.104Z,99804.53
2022-08-21T15:05:32.978Z,99802.97
2022-08-21T15:08:00.674Z,99802.97
2022-08-21T15:10:27.273Z,99809.06
2022-08-21T15:12:53.954Z,99803.56
2022-08-21T15:18:11.146Z,99802.75
2022-08-21T15:20:38.531Z,99802.56
2022-08-21T15:23:08.888Z,99800.84
2022-08-21T15:25:37.933Z,99799.44
2022-08-21T15:28:05.071Z,99792.31
2022-08-21T15:30:32.891Z,99796.75
2022-08-21T15:33:00.864Z,99801.97
2022-08-21T15:35:27.441Z,99805.53
2022-08-21T15:37:53.991Z,99793.31
2022-08-21T15:40:20.892Z,99810.03
2022-08-21T15:42:47.669Z,99802.03
2022-08-21T15:45:15.089Z,99801.97
2022-08-21T15:47:45.743Z,99808.19
2022-08-21T15:50:13.389Z,99803.09
2022-08-21T15:52:40.079Z,99810.22
2022-08-21T15:55:07.565Z,99812.00
2022-08-21T15:57:35.605Z,99806.09
2022-08-21T16:00:14.006Z,99812.38
2022-08-21T16:02:44.853Z,99802.81
2022-08-21T16:05:13.026Z,99807.28
2022-08-21T16:07:40.561Z,99805.75
2022-08-21T16:10:09.100Z,99811.91
2022-08-21T16:12:42.416Z,99808.34
2022-08-21T16:15:17.827Z,99798.63
2022-08-21T16:17:49.846Z,99803.97
2022-08-21T16:20:21.061Z,99803.97
2022-08-21T16:22:47.695Z,99797.00
2022-08-21T16:25:15.954Z,99798.00
2022-08-21T16:27:48.934Z,99798.16
2022-08-21T16:30:16.780Z,99801.75
2022-08-21T16:32:44.666Z,99794.66
2022-08-21T16:35:13.837Z,99806.25
2022-08-21T16:37:41.610Z,99806.25
2022-08-21T16:40:10.630Z,99805.44
2022-08-21T16:42:39.106Z,99809.84
2022-08-21T16:45:11.762Z,99810.81
2022-08-21T16:47:38.381Z,99813.53
2022-08-21T16:50:07.590Z,99812.69
2022-08-21T16:52:35.609Z,99819.88
2022-08-21T16:55:02.265Z,99807.47
2022-08-21T16:57:28.987Z,99813.84
2022-08-21T16:59:55.547Z,99825.47
2022-08-21T17:02:35.978Z,99826.50
2022-08-21T17:05:03.077Z,99840.69
2022-08-21T17:07:34.056Z,99826.53
2022-08-21T17:10:04.536Z,99832.84
2022-08-21T17:12:31.077Z,99835.59
2022-08-21T17:15:08.032Z,99829.63
2022-08-21T17:17:35.046Z,99840.31
2022-08-21T17:20:01.893Z,99840.41
2022-08-21T17:22:28.442Z,99833.31
2022-08-21T17:24:55.065Z,99837.00
2022-08-21T17:27:26.808Z,99829.16
2022-08-21T17:29:55.256Z,99832.88
2022-08-21T17:32:21.871Z,99836.69
2022-08-21T17:34:48.517Z,99834.94
2022-08-21T17:37:15.520Z,99837.78
2022-08-21T17:39:42.363Z,99834.34
2022-08-21T17:42:12.228Z,99843.31
2022-08-21T17:44:40.672Z,99829.25
2022-08-21T17:47:08.307Z,99838.84
2022-08-21T17:49:35.595Z,99841.59
2022-08-21T17:52:02.167Z,99846.00
2022-08-21T17:54:28.738Z,99846.06
2022-08-21T17:56:56.594Z,99844.25
2022-08-21T17:59:24.587Z,99843.47
2022-08-21T18:01:51.501Z,99846.97
2022-08-21T18:04:18.359Z,99842.50
2022-08-21T18:06:45.613Z,99851.41
2022-08-21T18:09:12.925Z,99845.25
2022-08-21T18:11:42.335Z,99840.97
2022-08-21T18:14:12.033Z,99855.13
2022-08-21T18:16:38.878Z,99841.97
2022-08-21T18:19:10.029Z,99849.19
2022-08-21T18:21:36.662Z,99842.25
2022-08-21T18:24:04.118Z,99844.94
2022-08-21T18:26:34.872Z,99848.56
2022-08-21T18:29:02.531Z,99848.59
2022-08-21T18:31:31.593Z,99839.63
2022-08-21T18:33:58.973Z,99843.63
2022-08-21T18:36:27.629Z,99850.31
2022-08-21T18:39:08.578Z,99849.09
2022-08-21T18:41:44.738Z,99853.72
2022-08-21T18:44:13.306Z,99853.72
2022-08-21T18:46:39.887Z,99855.41
2022-08-21T18:49:07.435Z,99843.13
2022-08-21T18:51:33.953Z,99850.34
2022-08-21T18:54:00.593Z,99853.69
2022-08-21T18:56:27.379Z,99856.44
2022-08-21T18:58:58.429Z,99853.81
2022-08-21T19:01:25.952Z,99852.00
2022-08-21T19:03:52.628Z,99856.47
2022-08-21T19:06:19.336Z,99863.50
2022-08-21T19:08:45.961Z,99858.34
2022-08-21T19:11:12.754Z,99866.50
2022-08-21T19:13:41.152Z,99862.13
2022-08-21T19:18:55.544Z,99864.22
2022-08-21T19:21:24.781Z,99869.50
2022-08-21T19:23:53.588Z,99862.44
2022-08-21T19:26:23.361Z,99863.53
2022-08-21T19:28:53.568Z,99866.53
2022-08-21T19:31:26.558Z,99868.59
2022-08-21T19:34:01.929Z,99866.16
2022-08-21T19:36:30.068Z,99862.75
2022-08-21T19:38:57.521Z,99860.34
2022-08-21T19:41:27.609Z,99864.81
2022-08-21T19:43:56.915Z,99858.75
2022-08-21T19:46:29.529Z,99856.31
2022-08-21T19:48:57.304Z,99853.66
2022-08-21T19:51:25.192Z,99850.22
2022-08-21T19:53:57.248Z,99845.03
2022-08-21T19:56:27.888Z,99848.97
2022-08-21T19:58:55.515Z,99840.31
2022-08-21T20:01:24.282Z,99850.09
2022-08-21T20:03:54.290Z,99848.25
2022-08-21T20:06:24.005Z,99850.88
2022-08-21T20:08:52.067Z,99850.59
2022-08-21T20:11:26.163Z,99854.19
2022-08-21T20:13:53.613Z,99853.13
2022-08-21T20:16:21.612Z,99854.94
2022-08-21T20:18:49.023Z,99852.31
2022-08-21T20:21:15.881Z,99856.53
2022-08-21T20:23:43.130Z,99861.03
2022-08-21T20:26:16.582Z,99861.16
2022-08-21T20:28:43.255Z,99862.81
2022-08-21T20:31:10.498Z,99865.50
2022-08-21T20:33:37.952Z,99870.81
2022-08-21T20:36:04.743Z,99870.78
2022-08-21T20:38:31.790Z,99863.69
2022-08-21T20:40:58.830Z,99861.91
2022-08-21T20:43:26.904Z,99864.66
2022-08-21T20:45:55.620Z,99854.03
2022-08-21T20:48:27.865Z,99859.44
2022-08-21T20:51:02.820Z,99857.66
2022-08-21T20:53:43.180Z,99854.19
2022-08-21T20:56:49.565Z,99850.75
2022-08-21T20:59:18.781Z,99852.56
2022-08-21T21:01:49.049Z,99854.38
2022-08-21T21:04:37.300Z,99845.66
2022-08-21T21:07:09.029Z,99844.75
2022-08-21T21:09:42.563Z,99846.59
2022-08-21T21:12:16.469Z,99839.59
2022-08-21T21:14:52.638Z,99832.50
2022-08-21T21:17:43.135Z,99839.72
2022-08-21T21:20:48.858Z,99845.94
2022-08-21T21:23:51.841Z,99834.50
2022-08-21T21:26:29.227Z,99847.78
2022-08-21T21:29:32.736Z,99847.84
2022-08-21T21:31:59.651Z,99855.81
2022-08-21T21:34:32.926Z,99850.50
2022-08-21T21:37:02.303Z,99852.28
2022-08-21T21:39:53.392Z,99865.56
2022-08-21T21:42:31.898Z,99860.28
2022-08-21T21:45:16.488Z,99867.34
2022-08-21T21:48:09.119Z,99862.97
2022-08-21T21:51:00.656Z,99865.69
2022-08-21T21:53:42.919Z,99861.38
2022-08-21T21:56:20.681Z,99858.72
2022-08-21T21:59:08.318Z,99856.16
2022-08-21T22:01:49.392Z,99857.09
2022-08-21T22:04:22.472Z,99853.66
2022-08-21T22:07:11.722Z,99851.91
2022-08-21T22:09:46.047Z,99852.88
2022-08-21T22:12:34.230Z,99849.50
2022-08-21T22:15:26.463Z,99854.91
2022-08-21T22:18:17.319Z,99855.78
2022-08-21T22:21:10.697Z,99863.81
2022-08-21T22:23:47.650Z,99854.16
2022-08-21T22:26:20.897Z,99856.06
2022-08-21T22:28:50.783Z,99865.81
2022-08-21T22:31:29.468Z,99859.63
2022-08-21T22:34:00.853Z,99861.38
2022-08-21T22:36:32.438Z,99860.56
2022-08-21T22:39:00.342Z,99856.16
2022-08-21T22:41:31.061Z,99841.19
2022-08-21T22:44:01.920Z,99836.88
2022-08-21T22:46:56.158Z,99828.97
2022-08-21T22:49:34.025Z,99821.94
2022-08-21T22:52:33.202Z,99815.78
2022-08-21T22:55:52.525Z,99802.56
2022-08-21T22:58:22.776Z,99799.88
2022-08-21T23:00:49.907Z,99788.44
2022-08-21T23:03:22.167Z,99782.28
2022-08-21T23:05:49.727Z,99788.50
2022-08-21T23:08:35.900Z,99782.31
2022-08-21T23:11:12.698Z,99777.97
2022-08-21T23:13:44.302Z,99776.16
2022-08-21T23:16:23.654Z,99786.78
2022-08-21T23:19:00.933Z,99798.34
2022-08-21T23:21:40.674Z,99804.59
2022-08-21T23:27:52.419Z,99825.84
2022-08-21T23:30:29.160Z,99829.41
2022-08-21T23:33:23.794Z,99818.81
2022-08-21T23:36:30.305Z,99829.44
2022-08-21T23:39:24.740Z,99826.81
2022-08-21T23:42:17.624Z,99832.13
2022-08-21T23:48:21.526Z,99830.38
2022-08-21T23:51:11.817Z,99829.47
2022-08-21T23:54:02.327Z,99825.91
2022-08-21T23:56:34.969Z,99834.78
2022-08-21T23:59:10.552Z,99824.13
